Time;durP1;ratioP1;P1;durP2;ratioP2;P2;SDS_P1;SDS_P2;PMS_P1;PMS_P2;Temp;Humidity;BMP_temperature;BMP_pressure;BME280_temperature;BME280_humidity;BME280_pressure;Samples;Min_cycle;Max_cycle;Signal;HPM_P1;HPM_P2
2021/11/26 00:02:24;;;;;;;5.40;3.78;;;;;;;-148.56;100.00;61375.16;5003674;28;20033;-30
2021/11/26 00:04:50;;;;;;;6.95;4.15;;;;;;;-148.56;100.00;61375.16;5003146;28;20022;-31
2021/11/26 00:07:16;;;;;;;5.32;3.83;;;;;;;-148.56;100.00;61375.16;5002382;28;20036;-31
2021/11/26 00:09:41;;;;;;;5.05;4.30;;;;;;;-148.56;100.00;61375.16;5004755;28;20035;-29
2021/11/26 00:12:07;;;;;;;5.22;4.03;;;;;;;-148.56;100.00;61375.16;5000067;28;20029;-32
2021/11/26 00:14:35;;;;;;;7.60;3.60;;;;;;;-148.56;100.00;61375.16;5009255;28;20036;-29
2021/11/26 00:17:03;;;;;;;5.22;3.88;;;;;;;-148.56;100.00;61375.16;5006400;28;20576;-36
2021/11/26 00:19:28;;;;;;;5.55;4.20;;;;;;;-148.56;100.00;61375.16;5003081;28;20029;-32
2021/11/26 00:21:54;;;;;;;8.43;3.70;;;;;;;-148.56;100.00;61375.16;5008813;28;20056;-29
2021/11/26 00:24:19;;;;;;;7.15;4.15;;;;;;;-148.56;100.00;61375.16;5004953;28;20040;-32
2021/11/26 00:26:46;;;;;;;7.38;4.57;;;;;;;-148.56;100.00;61375.16;5005741;28;20863;-30
2021/11/26 00:29:11;;;;;;;9.55;4.45;;;;;;;-148.56;100.00;61375.16;5003659;28;20033;-32
2021/11/26 00:31:37;;;;;;;5.55;4.53;;;;;;;-148.56;100.00;61375.16;4999431;28;20025;-29
2021/11/26 00:34:03;;;;;;;6.22;4.30;;;;;;;-148.56;100.00;61375.16;5001906;28;20088;-31
2021/11/26 00:36:28;;;;;;;6.05;4.43;;;;;;;-148.56;100.00;61375.16;5005770;28;20052;-35
2021/11/26 00:38:54;;;;;;;4.25;3.85;;;;;;;-148.56;100.00;61375.16;5017208;28;20032;-30
2021/11/26 00:41:19;;;;;;;5.32;4.10;;;;;;;-148.56;100.00;61375.16;5002358;28;20029;-33
2021/11/26 00:43:45;;;;;;;5.75;4.63;;;;;;;-148.56;100.00;61375.16;5004347;28;20055;-32
2021/11/26 00:46:11;;;;;;;5.40;4.70;;;;;;;-148.56;100.00;61375.16;5004774;28;20037;-30
2021/11/26 00:48:36;;;;;;;6.88;3.97;;;;;;;-148.56;100.00;61375.16;5004893;28;20028;-28
2021/11/26 00:51:02;;;;;;;6.25;4.50;;;;;;;-148.56;100.00;61375.16;5004229;28;20029;-28
2021/11/26 00:53:27;;;;;;;6.10;4.28;;;;;;;-148.56;100.00;61375.16;5007192;28;20014;-31
2021/11/26 00:55:53;;;;;;;5.30;4.05;;;;;;;-148.56;100.00;61375.16;5005105;28;20557;-34
2021/11/26 00:58:18;;;;;;;5.32;4.40;;;;;;;-148.56;100.00;61375.16;5002679;28;20037;-34
2021/11/26 01:00:43;;;;;;;4.75;4.25;;;;;;;-148.56;100.00;61375.16;5003225;28;20394;-31
2021/11/26 01:03:09;;;;;;;5.97;4.60;;;;;;;-148.56;100.00;61375.16;5000389;28;20859;-33
2021/11/26 01:05:34;;;;;;;5.90;4.50;;;;;;;-148.56;100.00;61375.16;4997856;28;20042;-34
2021/11/26 01:08:00;;;;;;;5.38;4.03;;;;;;;-148.56;100.00;61375.16;4999646;28;20674;-32
2021/11/26 01:10:25;;;;;;;5.07;4.28;;;;;;;-148.56;100.00;61375.16;5009441;28;20040;-30
2021/11/26 01:12:51;;;;;;;5.68;4.65;;;;;;;-148.56;100.00;61375.16;5002199;28;20064;-32
2021/11/26 01:15:20;;;;;;;5.88;4.65;;;;;;;-148.56;100.00;61375.16;5004239;28;20025;-32
2021/11/26 01:17:46;;;;;;;4.35;3.95;;;;;;;-148.56;100.00;61375.16;5001484;28;20078;-31
2021/11/26 01:20:14;;;;;;;6.82;4.50;;;;;;;-148.56;100.00;61375.16;5001331;28;20080;-30
2021/11/26 01:22:39;;;;;;;6.10;4.78;;;;;;;-148.56;100.00;61375.16;5001689;28;20044;-31
2021/11/26 01:25:06;;;;;;;6.30;4.30;;;;;;;-148.56;100.00;61375.16;5005439;28;20044;-29
2021/11/26 01:27:32;;;;;;;5.18;4.60;;;;;;;-148.56;100.00;61375.16;5001556;28;20091;-28
2021/11/26 01:29:58;;;;;;;5.20;4.70;;;;;;;-148.56;100.00;61375.16;4998783;28;20564;-36
2021/11/26 01:32:23;;;;;;;9.02;3.97;;;;;;;-148.56;100.00;61375.16;5002774;28;20029;-29
2021/11/26 01:34:48;;;;;;;6.53;4.47;;;;;;;-148.56;100.00;61375.16;4999020;28;20034;-28
2021/11/26 01:37:14;;;;;;;4.70;4.05;;;;;;;-148.56;100.00;61375.16;4997875;28;20032;-30
2021/11/26 01:39:39;;;;;;;5.05;4.22;;;;;;;-148.56;100.00;61375.16;5000353;28;20478;-31
2021/11/26 01:42:05;;;;;;;4.95;4.22;;;;;;;-148.56;100.00;61375.16;5006532;28;20561;-28
2021/11/26 01:44:30;;;;;;;5.68;4.40;;;;;;;-148.56;100.00;61375.16;5005836;28;20083;-34
2021/11/26 01:46:56;;;;;;;5.25;4.28;;;;;;;-148.56;100.00;61375.16;5002959;28;20072;-32
2021/11/26 01:49:21;;;;;;;5.45;4.55;;;;;;;-148.56;100.00;61375.16;5003780;28;20032;-30
2021/11/26 01:51:46;;;;;;;6.40;4.95;;;;;;;-148.56;100.00;61375.16;5000107;28;20022;-31
2021/11/26 01:54:12;;;;;;;5.63;4.35;;;;;;;-148.56;100.00;61375.16;5004216;28;20033;-30
2021/11/26 01:56:38;;;;;;;6.47;3.92;;;;;;;-148.56;100.00;61375.16;4999675;28;20109;-33
2021/11/26 01:59:03;;;;;;;5.70;4.38;;;;;;;-148.56;100.00;61375.16;5002394;28;20149;-29
2021/11/26 02:01:29;;;;;;;4.93;4.18;;;;;;;-148.56;100.00;61375.16;5003055;28;20038;-30
2021/11/26 02:03:54;;;;;;;5.95;4.93;;;;;;;-148.56;100.00;61375.16;4995929;28;20033;-31
2021/11/26 02:06:20;;;;;;;4.60;3.90;;;;;;;-148.56;100.00;61375.16;5003600;28;20969;-31
2021/11/26 02:08:46;;;;;;;5.97;4.60;;;;;;;-148.56;100.00;61375.16;5002945;28;20678;-32
2021/11/26 02:11:11;;;;;;;7.30;4.60;;;;;;;-148.56;100.00;61375.16;5003316;28;20033;-33
2021/11/26 02:13:37;;;;;;;4.85;4.13;;;;;;;-148.56;100.00;61375.16;5004460;28;20048;-33
2021/11/26 02:16:04;;;;;;;4.75;4.25;;;;;;;-148.56;100.00;61375.16;5004948;28;20020;-31
2021/11/26 02:18:29;;;;;;;6.20;4.30;;;;;;;-148.56;100.00;61375.16;5001050;28;20053;-34
2021/11/26 02:20:55;;;;;;;4.40;3.95;;;;;;;-148.56;100.00;61375.16;5005410;28;20406;-30
2021/11/26 02:23:20;;;;;;;6.57;4.20;;;;;;;-148.56;100.00;61375.16;5001563;28;20135;-32
2021/11/26 02:25:46;;;;;;;5.20;4.05;;;;;;;-148.56;100.00;61375.16;5002243;28;20580;-30
2021/11/26 02:28:12;;;;;;;4.85;4.18;;;;;;;-148.56;100.00;61375.16;5004062;28;20105;-32
2021/11/26 02:30:38;;;;;;;5.72;4.45;;;;;;;-148.56;100.00;61375.16;5003302;28;20029;-32
2021/11/26 02:33:08;;;;;;;6.85;4.20;;;;;;;-148.56;100.00;61375.16;5003955;28;20030;-33
2021/11/26 02:35:34;;;;;;;7.75;3.40;;;;;;;-148.56;100.00;61375.16;5000092;28;20037;-34
2021/11/26 02:37:59;;;;;;;5.28;4.25;;;;;;;-148.56;100.00;61375.16;5002156;28;20022;-30
2021/11/26 02:40:26;;;;;;;6.43;3.88;;;;;;;-148.56;100.00;61375.16;4996138;28;20048;-31
2021/11/26 02:42:51;;;;;;;5.57;3.92;;;;;;;-148.56;100.00;61375.16;4975194;28;20152;-30
2021/11/26 02:45:18;;;;;;;6.63;4.32;;;;;;;-148.56;100.00;61375.16;4997788;28;20029;-33
2021/11/26 02:47:43;;;;;;;5.97;4.20;;;;;;;-148.56;100.00;61375.16;5002280;28;20065;-28
2021/11/26 02:50:10;;;;;;;6.45;3.95;;;;;;;-148.56;100.00;61375.16;5000015;28;20116;-30
2021/11/26 02:52:35;;;;;;;4.47;4.00;;;;;;;-148.56;100.00;61375.16;5003519;28;20091;-31
2021/11/26 02:55:01;;;;;;;4.63;4.07;;;;;;;-148.56;100.00;61375.16;5009934;28;20056;-31
2021/11/26 02:57:26;;;;;;;4.88;4.05;;;;;;;-148.56;100.00;61375.16;4980867;28;20493;-33
2021/11/26 02:59:52;;;;;;;4.97;3.97;;;;;;;-148.56;100.00;61375.16;5001807;28;20038;-28
2021/11/26 03:02:17;;;;;;;6.00;4.18;;;;;;;-148.56;100.00;61375.16;5001977;28;20034;-32
2021/11/26 03:04:42;;;;;;;4.18;3.78;;;;;;;-148.56;100.00;61375.16;5000021;28;20034;-29
2021/11/26 03:07:09;;;;;;;5.38;4.28;;;;;;;-148.56;100.00;61375.16;4995602;28;21182;-33
2021/11/26 03:09:35;;;;;;;5.10;3.88;;;;;;;-148.56;100.00;61375.16;4998998;28;20029;-32
2021/11/26 03:12:00;;;;;;;4.72;3.88;;;;;;;-148.56;100.00;61375.16;5003934;28;20419;-34
2021/11/26 03:14:26;;;;;;;5.25;4.00;;;;;;;-148.56;100.00;61375.16;5007271;28;20018;-33
2021/11/26 03:16:51;;;;;;;4.93;4.43;;;;;;;-148.56;100.00;61375.16;5003545;28;20501;-30
2021/11/26 03:19:17;;;;;;;4.32;3.92;;;;;;;-148.56;100.00;61375.16;5002514;28;20041;-32
2021/11/26 03:21:42;;;;;;;4.50;3.80;;;;;;;-148.56;100.00;61375.16;5001052;28;20354;-32
2021/11/26 03:24:07;;;;;;;5.07;4.00;;;;;;;-148.56;100.00;61375.16;5005855;28;20026;-28
2021/11/26 03:26:33;;;;;;;4.05;3.60;;;;;;;-148.56;100.00;61375.16;5004039;28;20628;-31
2021/11/26 03:28:58;;;;;;;4.63;3.65;;;;;;;-148.56;100.00;61375.16;5008619;28;20800;-31
2021/11/26 03:31:23;;;;;;;4.20;3.70;;;;;;;-148.56;100.00;61375.16;5004050;28;20054;-28
2021/11/26 03:33:49;;;;;;;4.97;3.67;;;;;;;-148.56;100.00;61375.16;4999997;28;20071;-29
2021/11/26 03:36:14;;;;;;;4.20;3.50;;;;;;;-148.56;100.00;61375.16;4998730;28;20501;-31
2021/11/26 03:38:40;;;;;;;4.20;3.80;;;;;;;-148.56;100.00;61375.16;5008432;28;20025;-31
2021/11/26 03:41:05;;;;;;;4.95;4.40;;;;;;;-148.56;100.00;61375.16;5006973;28;20033;-30
2021/11/26 03:43:31;;;;;;;4.43;3.40;;;;;;;-148.56;100.00;61375.16;5003226;28;20122;-30
2021/11/26 03:45:56;;;;;;;3.70;3.33;;;;;;;-148.56;100.00;61375.16;5005432;28;20029;-32
2021/11/26 03:48:21;;;;;;;4.85;4.03;;;;;;;-148.56;100.00;61375.16;5008827;28;20042;-33
2021/11/26 03:50:47;;;;;;;4.60;4.00;;;;;;;-148.56;100.00;61375.16;5006053;28;20669;-31
2021/11/26 03:53:12;;;;;;;6.18;3.72;;;;;;;-148.56;100.00;61375.16;5006443;28;20045;-28
2021/11/26 03:55:38;;;;;;;4.65;3.55;;;;;;;-148.56;100.00;61375.16;5006159;28;20033;-30
2021/11/26 03:58:03;;;;;;;3.92;3.30;;;;;;;-148.56;100.00;61375.16;5004136;28;20026;-29
2021/11/26 04:00:28;;;;;;;4.80;3.72;;;;;;;-148.56;100.00;61375.16;5007334;28;20041;-32
2021/11/26 04:02:54;;;;;;;4.10;3.70;;;;;;;-148.56;100.00;61375.16;4987237;28;20033;-33
2021/11/26 04:05:19;;;;;;;3.72;3.40;;;;;;;-148.56;100.00;61375.16;5006933;28;20137;-34
2021/11/26 04:07:45;;;;;;;5.00;3.50;;;;;;;-148.56;100.00;61375.16;5009432;28;20553;-33
2021/11/26 04:10:10;;;;;;;5.85;3.80;;;;;;;-148.56;100.00;61375.16;5001195;28;20168;-32
2021/11/26 04:12:36;;;;;;;3.55;3.25;;;;;;;-148.56;100.00;61375.16;5016781;28;20068;-31
2021/11/26 04:15:06;;;;;;;4.88;3.30;;;;;;;-148.56;100.00;61375.16;5005421;28;20401;-33
2021/11/26 04:17:31;;;;;;;4.15;3.47;;;;;;;-148.56;100.00;61375.16;5008883;28;20544;-31
2021/11/26 04:19:56;;;;;;;4.55;3.88;;;;;;;-148.56;100.00;61375.16;5006515;28;20042;-33
2021/11/26 04:22:22;;;;;;;4.15;3.42;;;;;;;-148.56;100.00;61375.16;5003422;28;20041;-30
2021/11/26 04:24:47;;;;;;;5.43;3.80;;;;;;;-148.56;100.00;61375.16;5006833;28;20025;-30
2021/11/26 04:27:13;;;;;;;3.67;3.20;;;;;;;-148.56;100.00;61375.16;5004266;28;20033;-28
2021/11/26 04:29:38;;;;;;;3.80;3.40;;;;;;;-148.56;100.00;61375.16;5004613;28;20510;-31
2021/11/26 04:32:04;;;;;;;5.13;3.60;;;;;;;-148.56;100.00;61375.16;5006260;28;20064;-33
2021/11/26 04:34:29;;;;;;;3.88;3.45;;;;;;;-148.56;100.00;61375.16;5006923;28;20618;-30
2021/11/26 04:36:55;;;;;;;3.70;3.20;;;;;;;-148.56;100.00;61375.16;5003739;28;20034;-30
2021/11/26 04:39:20;;;;;;;3.83;3.38;;;;;;;-148.56;100.00;61375.16;5002544;28;20079;-34
2021/11/26 04:41:45;;;;;;;5.22;3.60;;;;;;;-148.56;100.00;61375.16;5007266;28;20030;-31
2021/11/26 04:44:11;;;;;;;4.22;3.22;;;;;;;-148.56;100.00;61375.16;5006592;28;20037;-29
2021/11/26 04:46:36;;;;;;;3.30;3.00;;;;;;;-148.56;100.00;61375.16;5005012;28;20014;-32
2021/11/26 04:49:05;;;;;;;3.80;3.13;;;;;;;-148.56;100.00;61375.16;5004065;28;20033;-33
2021/11/26 04:51:30;;;;;;;4.28;3.10;;;;;;;-148.56;100.00;61375.16;5006961;28;20033;-32
2021/11/26 04:53:56;;;;;;;3.85;3.15;;;;;;;-148.56;100.00;61375.16;5003984;28;20114;-28
2021/11/26 04:56:21;;;;;;;4.25;3.35;;;;;;;-148.56;100.00;61375.16;5004284;28;20427;-33
2021/11/26 04:58:46;;;;;;;4.10;3.22;;;;;;;-148.56;100.00;61375.16;5000368;28;20100;-28
2021/11/26 05:01:12;;;;;;;3.38;3.08;;;;;;;-148.56;100.00;61375.16;5009930;28;20044;-32
2021/11/26 05:03:37;;;;;;;3.65;3.00;;;;;;;-148.56;100.00;61375.16;5001663;28;20033;-33
2021/11/26 05:06:03;;;;;;;3.75;3.20;;;;;;;-148.56;100.00;61375.16;5006903;28;20029;-33
2021/11/26 05:08:28;;;;;;;3.38;2.90;;;;;;;-148.56;100.00;61375.16;4998214;28;20894;-29
2021/11/26 05:10:54;;;;;;;6.68;5.57;;;;;;;-148.56;100.00;61375.16;5005435;28;20375;-33
2021/11/26 05:13:21;;;;;;;4.50;3.40;;;;;;;-148.56;100.00;61375.16;5001762;28;20667;-31
2021/11/26 05:15:46;;;;;;;4.40;3.65;;;;;;;-148.56;100.00;61375.16;5004342;28;20033;-31
2021/11/26 05:18:11;;;;;;;3.92;3.53;;;;;;;-148.56;100.00;61375.16;4999876;28;20099;-32
2021/11/26 05:20:37;;;;;;;3.58;3.10;;;;;;;-148.56;100.00;61375.16;5003471;28;20080;-32
2021/11/26 05:23:02;;;;;;;3.90;3.22;;;;;;;-148.56;100.00;61375.16;5000969;28;20399;-33
2021/11/26 05:25:28;;;;;;;3.70;2.90;;;;;;;-148.56;100.00;61375.16;5001023;28;20098;-34
2021/11/26 05:27:54;;;;;;;3.88;3.00;;;;;;;-148.56;100.00;61375.16;5011334;28;20496;-30
2021/11/26 05:30:19;;;;;;;3.50;2.83;;;;;;;-148.56;100.00;61375.16;4998485;28;20033;-36
2021/11/26 05:32:47;;;;;;;3.38;3.00;;;;;;;-148.56;100.00;61375.16;4997754;28;20685;-28
2021/11/26 05:35:13;;;;;;;3.13;2.83;;;;;;;-148.56;100.00;61375.16;5001521;28;20033;-30
2021/11/26 05:37:39;;;;;;;4.70;3.45;;;;;;;-148.56;100.00;61375.16;5020296;28;20033;-33
2021/11/26 05:40:05;;;;;;;3.92;3.03;;;;;;;-148.56;100.00;61375.16;5003322;28;20054;-34
2021/11/26 05:42:31;;;;;;;3.60;3.10;;;;;;;-148.56;100.00;61375.16;4999584;28;20082;-33
2021/11/26 05:44:56;;;;;;;3.15;2.80;;;;;;;-148.56;100.00;61375.16;5002957;28;20029;-31
2021/11/26 05:47:21;;;;;;;3.65;3.35;;;;;;;-148.56;100.00;61375.16;5002185;28;20669;-27
2021/11/26 05:49:47;;;;;;;4.78;3.45;;;;;;;-148.56;100.00;61375.16;5000459;28;20036;-35
2021/11/26 05:52:12;;;;;;;5.60;3.97;;;;;;;-148.56;100.00;61375.16;5003931;28;20064;-33
2021/11/26 05:54:38;;;;;;;3.80;3.40;;;;;;;-148.56;100.00;61375.16;4999970;28;20030;-31
2021/11/26 05:57:04;;;;;;;4.00;3.00;;;;;;;-148.56;100.00;61375.16;5004305;28;20486;-31
2021/11/26 05:59:29;;;;;;;3.67;3.28;;;;;;;-148.56;100.00;61375.16;5005228;28;20122;-30
2021/11/26 06:01:58;;;;;;;13.82;7.47;;;;;;;-148.56;100.00;61375.16;4998027;28;20029;-30
2021/11/26 06:04:23;;;;;;;9.20;7.20;;;;;;;-148.56;100.00;61375.16;5002620;28;20083;-29
2021/11/26 06:06:48;;;;;;;6.07;4.50;;;;;;;-148.56;100.00;61375.16;5004239;28;20042;-31
2021/11/26 06:09:14;;;;;;;4.38;3.58;;;;;;;-148.56;100.00;61375.16;4999932;28;20026;-29
2021/11/26 06:11:39;;;;;;;3.42;2.90;;;;;;;-148.56;100.00;61375.16;4999830;28;20033;-33
2021/11/26 06:14:04;;;;;;;4.43;3.30;;;;;;;-148.56;100.00;61375.16;4997116;28;20038;-31
2021/11/26 06:16:30;;;;;;;3.60;3.20;;;;;;;-148.56;100.00;61375.16;5002914;28;20026;-32
2021/11/26 06:18:55;;;;;;;3.30;2.60;;;;;;;-148.56;100.00;61375.16;4998739;28;20026;-31
2021/11/26 06:21:21;;;;;;;3.35;2.90;;;;;;;-148.56;100.00;61375.16;5000892;28;20460;-28
2021/11/26 06:23:47;;;;;;;3.35;2.80;;;;;;;-148.56;100.00;61375.16;5003790;28;20029;-29
2021/11/26 06:26:13;;;;;;;3.30;2.92;;;;;;;-148.56;100.00;61375.16;4984112;28;20037;-33
2021/11/26 06:28:38;;;;;;;3.28;2.92;;;;;;;-148.56;100.00;61375.16;5000148;28;20570;-28
2021/11/26 06:31:03;;;;;;;4.10;2.70;;;;;;;-148.56;100.00;61375.16;4987439;28;20029;-33
2021/11/26 06:33:29;;;;;;;3.03;2.60;;;;;;;-148.56;100.00;61375.16;4998183;28;20033;-31
2021/11/26 06:35:54;;;;;;;3.10;2.80;;;;;;;-148.56;100.00;61375.16;4984959;28;20030;-31
2021/11/26 06:38:20;;;;;;;3.30;2.70;;;;;;;-148.56;100.00;61375.16;5003035;28;20030;-34
2021/11/26 06:40:45;;;;;;;3.10;2.80;;;;;;;-148.56;100.00;61375.16;4989887;28;20064;-31
2021/11/26 06:43:11;;;;;;;4.50;2.78;;;;;;;-148.56;100.00;61375.16;4977387;28;20116;-33
2021/11/26 06:45:36;;;;;;;3.90;2.90;;;;;;;-148.56;100.00;61375.16;5003296;28;20025;-27
2021/11/26 06:48:02;;;;;;;2.72;2.50;;;;;;;-148.56;100.00;61375.16;5002711;28;20029;-28
2021/11/26 06:50:27;;;;;;;3.13;2.65;;;;;;;-148.56;100.00;61375.16;4997596;28;20112;-31
2021/11/26 06:52:53;;;;;;;3.80;2.70;;;;;;;-148.56;100.00;61375.16;5005786;28;20033;-29
2021/11/26 06:55:18;;;;;;;2.97;2.67;;;;;;;-148.56;100.00;61375.16;5000065;28;20314;-32
2021/11/26 06:57:44;;;;;;;3.08;2.70;;;;;;;-148.56;100.00;61375.16;5008139;28;20032;-30
2021/11/26 07:00:14;;;;;;;2.78;2.33;;;;;;;-148.56;100.00;61375.16;5003516;28;20061;-32
2021/11/26 07:02:39;;;;;;;3.72;2.70;;;;;;;-148.56;100.00;61375.16;5006276;28;20033;-30
2021/11/26 07:05:05;;;;;;;3.80;2.70;;;;;;;-148.56;100.00;61375.16;5001672;28;20034;-28
2021/11/26 07:07:30;;;;;;;5.07;2.65;;;;;;;-148.56;100.00;61375.16;4999661;28;20705;-32
2021/11/26 07:09:56;;;;;;;2.80;2.50;;;;;;;-148.56;100.00;61375.16;5003603;28;20037;-30
2021/11/26 07:12:21;;;;;;;3.30;2.80;;;;;;;-148.56;100.00;61375.16;5001557;28;20167;-30
2021/11/26 07:14:47;;;;;;;2.83;2.47;;;;;;;-148.56;100.00;61375.16;5003323;28;20037;-31
2021/11/26 07:17:13;;;;;;;2.40;2.20;;;;;;;-148.56;100.00;61375.16;5012437;28;20030;-34
2021/11/26 07:19:39;;;;;;;2.63;2.40;;;;;;;-148.56;100.00;61375.16;5000731;28;20033;-33
2021/11/26 07:22:04;;;;;;;2.40;2.20;;;;;;;-148.56;100.00;61375.16;5005015;28;20036;-32
2021/11/26 07:24:30;;;;;;;2.38;2.15;;;;;;;-148.56;100.00;61375.16;5005528;28;20061;-30
2021/11/26 07:26:55;;;;;;;3.72;2.38;;;;;;;-148.56;100.00;61375.16;5000287;28;20124;-33
2021/11/26 07:29:21;;;;;;;2.78;2.42;;;;;;;-148.56;100.00;61375.16;5011098;28;20064;-31
2021/11/26 07:31:46;;;;;;;3.85;3.00;;;;;;;-148.56;100.00;61375.16;5004205;28;20425;-31
2021/11/26 07:34:11;;;;;;;14.57;3.10;;;;;;;-148.56;100.00;61375.16;4996321;28;20064;-29
2021/11/26 07:36:37;;;;;;;3.53;2.85;;;;;;;-148.56;100.00;61375.16;4998769;28;20033;-29
2021/11/26 07:39:03;;;;;;;10.27;4.30;;;;;;;-148.56;100.00;61375.16;5006596;28;20402;-34
2021/11/26 07:41:28;;;;;;;16.77;10.57;;;;;;;-148.56;100.00;61375.16;4999500;28;20025;-27
2021/11/26 07:43:55;;;;;;;8.73;4.97;;;;;;;-148.56;100.00;61375.16;5002910;28;20190;-31
2021/11/26 07:46:20;;;;;;;11.60;4.55;;;;;;;-148.56;100.00;61375.16;5003798;28;20680;-35
2021/11/26 07:48:46;;;;;;;9.45;4.50;;;;;;;-148.56;100.00;61375.16;4998843;28;20053;-33
2021/11/26 07:51:11;;;;;;;9.75;4.22;;;;;;;-148.56;100.00;61375.16;5004562;28;20071;-33
2021/11/26 07:53:37;;;;;;;14.18;4.30;;;;;;;-148.56;100.00;61375.16;4995957;28;20033;-30
2021/11/26 07:56:02;;;;;;;8.48;4.03;;;;;;;-148.56;100.00;61375.16;5018486;28;20134;-29
2021/11/26 07:58:27;;;;;;;10.35;4.00;;;;;;;-148.56;100.00;61375.16;5023729;28;20029;-29
2021/11/26 08:00:53;;;;;;;9.65;4.10;;;;;;;-148.56;100.00;61375.16;5005758;28;20152;-30
2021/11/26 08:03:21;;;;;;;8.65;3.97;;;;;;;-148.56;100.00;61375.16;5024769;28;20556;-31
2021/11/26 08:05:47;;;;;;;8.27;3.85;;;;;;;-148.56;100.00;61375.16;5022115;28;20195;-29
2021/11/26 08:08:12;;;;;;;6.90;3.63;;;;;;;-148.56;100.00;61375.16;5020286;28;20021;-29
2021/11/26 08:10:38;;;;;;;9.32;4.00;;;;;;;-148.56;100.00;61375.16;5024100;28;20026;-29
2021/11/26 08:13:03;;;;;;;8.82;4.10;;;;;;;-148.56;100.00;61375.16;5021187;28;20116;-29
2021/11/26 08:15:31;;;;;;;9.20;4.05;;;;;;;-148.56;100.00;61375.16;5020204;28;20048;-28
2021/11/26 08:17:56;;;;;;;7.60;3.92;;;;;;;-148.56;100.00;61375.16;5024593;28;20275;-31
2021/11/26 08:20:22;;;;;;;7.35;3.72;;;;;;;-148.56;100.00;61375.16;5023230;28;20036;-31
2021/11/26 08:22:47;;;;;;;8.52;4.82;;;;;;;-148.56;100.00;61375.16;5022157;28;20031;-32
2021/11/26 08:25:13;;;;;;;8.30;4.45;;;;;;;-148.56;100.00;61375.16;5025561;28;20025;-34
2021/11/26 08:27:39;;;;;;;7.05;4.30;;;;;;;-148.56;100.00;61375.16;5010550;28;20025;-29
2021/11/26 08:30:05;;;;;;;8.50;4.53;;;;;;;-148.56;100.00;61375.16;5022444;28;20032;-31
2021/11/26 08:32:31;;;;;;;9.05;4.25;;;;;;;-148.56;100.00;61375.16;5023506;28;20416;-30
2021/11/26 08:34:56;;;;;;;8.43;4.57;;;;;;;-148.56;100.00;61375.16;5026338;28;20133;-28
2021/11/26 08:37:21;;;;;;;11.10;4.55;;;;;;;-148.56;100.00;61375.16;5018516;28;20045;-30
2021/11/26 08:39:48;;;;;;;8.45;4.35;;;;;;;-148.56;100.00;61375.16;5016148;28;20031;-28
2021/11/26 08:42:14;;;;;;;9.75;4.85;;;;;;;-148.56;100.00;61375.16;5020861;28;20108;-29
2021/11/26 08:44:39;;;;;;;8.32;4.55;;;;;;;-148.56;100.00;61375.16;5024091;28;20087;-34
2021/11/26 08:47:05;;;;;;;7.25;4.30;;;;;;;-148.56;100.00;61375.16;5024951;28;20516;-28
2021/11/26 08:49:30;;;;;;;11.13;4.05;;;;;;;-148.56;100.00;61375.16;5022231;28;20112;-30
2021/11/26 08:51:56;;;;;;;7.20;3.70;;;;;;;-148.56;100.00;61375.16;5022887;28;20055;-29
2021/11/26 08:54:25;;;;;;;8.35;4.03;;;;;;;-148.56;100.00;61375.16;5024869;28;20935;-28
2021/11/26 08:56:56;;;;;;;12.55;3.65;;;;;;;-148.56;100.00;61375.16;5022252;28;20021;-29
2021/11/26 08:59:24;;;;;;;8.45;3.85;;;;;;;-148.56;100.00;61375.16;5001716;28;20036;-30
2021/11/26 09:01:50;;;;;;;5.75;3.50;;;;;;;-148.56;100.00;61375.16;5022210;28;20032;-32
2021/11/26 09:04:15;;;;;;;6.60;3.42;;;;;;;-148.56;100.00;61375.16;5022217;28;20055;-29
2021/11/26 09:06:41;;;;;;;5.88;3.65;;;;;;;-148.56;100.00;61375.16;5023621;28;20039;-30
2021/11/26 09:09:06;;;;;;;8.40;3.90;;;;;;;-148.56;100.00;61375.16;5022359;28;20044;-31
2021/11/26 09:11:32;;;;;;;4.65;3.42;;;;;;;-148.56;100.00;61375.16;5023832;28;20630;-28
2021/11/26 09:13:59;;;;;;;8.98;3.50;;;;;;;-148.56;100.00;61375.16;5023448;28;20063;-30
2021/11/26 09:16:24;;;;;;;5.65;3.15;;;;;;;-148.56;100.00;61375.16;5020085;28;20021;-30
2021/11/26 09:18:50;;;;;;;5.72;3.50;;;;;;;-148.56;100.00;61375.16;5018620;28;22273;-30
2021/11/26 09:21:15;;;;;;;4.90;3.30;;;;;;;-148.56;100.00;61375.16;5015802;28;20025;-31
2021/11/26 09:23:41;;;;;;;7.40;3.28;;;;;;;-148.56;100.00;61375.16;5019241;28;20106;-29
2021/11/26 09:26:07;;;;;;;6.68;3.50;;;;;;;-148.56;100.00;61375.16;5018254;28;20040;-32
2021/11/26 09:28:32;;;;;;;25.17;21.30;;;;;;;-148.56;100.00;61375.16;5021574;28;20448;-28
2021/11/26 09:30:58;;;;;;;36.45;29.55;;;;;;;-148.56;100.00;61375.16;5019752;28;20343;-32
2021/11/26 09:33:23;;;;;;;34.83;28.58;;;;;;;-148.56;100.00;61375.16;5021681;28;20808;-31
2021/11/26 09:35:49;;;;;;;32.78;28.02;;;;;;;-148.56;100.00;61375.16;5016683;28;20202;-33
2021/11/26 09:38:15;;;;;;;30.45;23.73;;;;;;;-148.56;100.00;61375.16;5015875;28;20055;-28
2021/11/26 09:40:42;;;;;;;26.10;18.98;;;;;;;-148.56;100.00;61375.16;5020191;28;20029;-30
2021/11/26 09:43:07;;;;;;;21.00;16.38;;;;;;;-148.56;100.00;61375.16;5022159;28;20116;-33
2021/11/26 09:45:34;;;;;;;22.58;14.57;;;;;;;-148.56;100.00;61375.16;5017470;28;21855;-30
2021/11/26 09:47:59;;;;;;;19.33;13.52;;;;;;;-148.56;100.00;61375.16;5019021;28;21165;-31
2021/11/26 09:50:26;;;;;;;18.35;12.65;;;;;;;-148.56;100.00;61375.16;5018973;28;20029;-30
2021/11/26 09:52:51;;;;;;;15.98;11.77;;;;;;;-148.56;100.00;61375.16;5021680;28;20424;-32
2021/11/26 09:55:18;;;;;;;14.57;10.93;;;;;;;-148.56;100.00;61375.16;5019028;28;20124;-30
2021/11/26 09:57:43;;;;;;;13.23;9.65;;;;;;;-148.56;100.00;61375.16;5021402;28;20025;-31
2021/11/26 10:00:10;;;;;;;13.55;9.30;;;;;;;-148.56;100.00;61375.16;5018343;28;20630;-30
2021/11/26 10:02:35;;;;;;;13.25;9.25;;;;;;;-148.56;100.00;61375.16;5019860;28;20033;-30
2021/11/26 10:05:06;;;;;;;12.82;8.77;;;;;;;-148.56;100.00;61375.16;5017611;28;20146;-32
2021/11/26 10:07:31;;;;;;;26.67;10.93;;;;;;;-148.56;100.00;61375.16;5017584;28;20635;-28
2021/11/26 10:10:08;;;;;;;28.40;10.63;;;;;;;-148.56;100.00;61375.16;5016740;28;20712;-31
2021/11/26 10:12:33;;;;;;;39.65;11.75;;;;;;;-148.56;100.00;61375.16;5019347;28;20060;-32
2021/11/26 10:14:59;;;;;;;39.95;12.07;;;;;;;-148.56;100.00;61375.16;5023270;28;20496;-32
2021/11/26 10:17:24;;;;;;;42.28;11.50;;;;;;;-148.56;100.00;61375.16;5019319;28;20539;-31
2021/11/26 10:20:01;;;;;;;57.20;10.45;;;;;;;-148.56;100.00;61375.16;5026471;28;20579;-33
2021/11/26 10:22:32;;;;;;;31.27;11.25;;;;;;;-148.56;100.00;61375.16;5021914;28;20534;-30
2021/11/26 10:25:00;;;;;;;34.55;10.43;;;;;;;-148.56;100.00;61375.16;5026592;28;20644;-32
2021/11/26 10:27:41;;;;;;;25.65;8.93;;;;;;;-148.56;100.00;61375.16;5025088;28;20150;-30
2021/11/26 10:30:20;;;;;;;33.42;10.05;;;;;;;-148.56;100.00;61375.16;5025085;28;20129;-30
2021/11/26 10:33:05;;;;;;;27.75;8.85;;;;;;;-148.56;100.00;61375.16;5025265;28;20059;-31
2021/11/26 10:35:36;;;;;;;22.55;8.57;;;;;;;-148.56;100.00;61375.16;5026077;28;20067;-33
2021/11/26 10:38:07;;;;;;;33.95;9.20;;;;;;;-148.56;100.00;61375.16;5023489;28;20034;-32
2021/11/26 10:40:34;;;;;;;31.30;8.63;;;;;;;-148.56;100.00;61375.16;5022433;28;20511;-32
2021/11/26 10:43:01;;;;;;;22.40;8.75;;;;;;;-148.56;100.00;61375.16;5025701;28;20032;-28
2021/11/26 10:45:44;;;;;;;20.05;8.00;;;;;;;-148.56;100.00;61375.16;5026318;28;20927;-33
2021/11/26 10:48:31;;;;;;;26.02;7.97;;;;;;;-148.56;100.00;61375.16;5025323;28;20095;-30
2021/11/26 10:51:42;;;;;;;21.70;7.55;;;;;;;-148.56;100.00;61375.16;5024388;28;20136;-33
2021/11/26 10:59:14;;;;;;;21.15;6.68;;;;;;;-148.56;100.00;61375.16;5024419;28;20031;-32
2021/11/26 11:01:46;;;;;;;14.65;7.15;;;;;;;-148.56;100.00;61375.16;5022646;28;20731;-30
2021/11/26 11:04:15;;;;;;;20.80;6.80;;;;;;;-148.56;100.00;61375.16;5024099;28;20029;-30
2021/11/26 11:06:41;;;;;;;16.88;6.57;;;;;;;-148.56;100.00;61375.16;5024515;28;20020;-32
2021/11/26 11:09:08;;;;;;;15.23;6.25;;;;;;;-148.56;100.00;61375.16;5023363;28;20543;-29